createdAt,value
2018-10-09T00:00:48.237Z,59.39
2018-10-09T00:01:48.096Z,59.4
2018-10-09T00:02:47.849Z,59.46
2018-10-09T00:03:48.159Z,59.42
2018-10-09T00:04:48.147Z,59.41
2018-10-09T00:05:47.925Z,59.41
2018-10-09T00:06:48.109Z,59.46
2018-10-09T00:07:48.411Z,59.41
2018-10-09T00:08:47.967Z,59.38
2018-10-09T00:09:48.045Z,59.45
2018-10-09T00:10:47.977Z,59.43
2018-10-09T00:11:47.964Z,59.41
2018-10-09T00:12:48.154Z,59.41
2018-10-09T00:13:48.117Z,59.49
2018-10-09T00:14:48.155Z,59.46
2018-10-09T00:15:48.350Z,59.48
2018-10-09T00:16:48.031Z,59.38
2018-10-09T00:17:48.050Z,59.4
2018-10-09T00:18:47.919Z,59.34
2018-10-09T00:19:47.961Z,59.39
2018-10-09T00:20:47.885Z,59.48
2018-10-09T00:21:48.215Z,59.4
2018-10-09T00:22:47.818Z,59.39
2018-10-09T00:23:48.070Z,59.38
2018-10-09T00:24:47.986Z,59.36
2018-10-09T00:25:48.200Z,59.41
2018-10-09T00:26:48.316Z,59.42
2018-10-09T00:27:48.080Z,59.37
2018-10-09T00:28:48.062Z,59.36
2018-10-09T00:29:48.568Z,59.43
2018-10-09T00:30:47.892Z,59.38
2018-10-09T00:31:48.342Z,59.35
2018-10-09T00:32:47.981Z,59.4
2018-10-09T00:33:48.093Z,59.37
2018-10-09T00:34:47.895Z,59.43
2018-10-09T00:35:47.971Z,59.38
2018-10-09T00:36:48.217Z,59.41
2018-10-09T00:37:47.833Z,59.45
2018-10-09T00:38:48.231Z,59.41
2018-10-09T00:39:47.965Z,59.38
2018-10-09T00:40:48.138Z,59.42
2018-10-09T00:41:47.889Z,59.36
2018-10-09T00:42:47.772Z,59.44
2018-10-09T00:43:48.055Z,59.41
2018-10-09T00:44:48.116Z,59.45
2018-10-09T00:45:48.034Z,59.36
2018-10-09T00:46:48.238Z,59.42
2018-10-09T00:47:48.061Z,59.39
2018-10-09T00:48:47.813Z,59.39
2018-10-09T00:49:48.289Z,59.35
2018-10-09T00:50:48.084Z,59.38
2018-10-09T00:51:48.038Z,59.41
2018-10-09T00:52:47.961Z,59.41
2018-10-09T00:53:47.978Z,59.42
2018-10-09T00:54:48.393Z,59.39
2018-10-09T00:55:48.051Z,59.44
2018-10-09T00:56:48.209Z,59.42
2018-10-09T00:57:48.268Z,59.39
2018-10-09T00:58:48.037Z,59.39
2018-10-09T00:59:47.802Z,59.39
2018-10-09T01:00:48.217Z,59.46
2018-10-09T01:01:47.984Z,59.36
2018-10-09T01:02:48.110Z,59.36
2018-10-09T01:03:48.126Z,59.37
2018-10-09T01:04:47.932Z,59.37
2018-10-09T01:05:48.096Z,59.37
2018-10-09T01:06:47.978Z,59.42
2018-10-09T01:07:48.009Z,59.46
2018-10-09T01:08:47.851Z,59.47
2018-10-09T01:09:48.412Z,59.41
2018-10-09T01:10:48.094Z,59.48
2018-10-09T01:11:48.161Z,59.5
2018-10-09T01:12:48.032Z,59.43
2018-10-09T01:13:48.519Z,59.44
2018-10-09T01:14:47.860Z,59.39
2018-10-09T01:15:47.952Z,59.49
2018-10-09T01:16:48.304Z,59.4
2018-10-09T01:17:47.853Z,59.44
2018-10-09T01:18:47.998Z,59.41
2018-10-09T01:19:48.019Z,59.39
2018-10-09T01:20:47.928Z,59.47
2018-10-09T01:21:47.990Z,59.44
2018-10-09T01:22:47.932Z,59.44
2018-10-09T01:23:47.879Z,59.46
2018-10-09T01:24:48.031Z,59.47
2018-10-09T01:25:48.015Z,59.45
2018-10-09T01:26:47.821Z,59.39
2018-10-09T01:27:47.967Z,59.36
2018-10-09T01:28:48.344Z,59.36
2018-10-09T01:29:48.001Z,59.41
2018-10-09T01:30:47.974Z,59.4
2018-10-09T01:31:47.799Z,59.46
2018-10-09T01:32:48.056Z,59.39
2018-10-09T01:33:47.954Z,59.43
2018-10-09T01:34:47.818Z,59.41
2018-10-09T01:35:48.180Z,59.45
2018-10-09T01:36:47.912Z,59.4
2018-10-09T01:37:48.037Z,59.46
2018-10-09T01:38:47.992Z,59.46
2018-10-09T01:39:48.005Z,59.45
2018-10-09T01:40:48.173Z,59.47
2018-10-09T01:41:48.146Z,59.51
2018-10-09T01:42:48.009Z,59.42
2018-10-09T01:43:48.115Z,59.48
2018-10-09T01:44:47.848Z,59.44
2018-10-09T01:45:48.401Z,59.39
2018-10-09T01:46:47.892Z,59.44
2018-10-09T01:47:48.029Z,59.43
2018-10-09T01:48:47.812Z,59.48
2018-10-09T01:49:48.179Z,59.46
2018-10-09T01:50:47.989Z,59.49
2018-10-09T01:51:47.887Z,59.4
2018-10-09T01:52:47.881Z,59.39
2018-10-09T01:53:47.928Z,59.47
2018-10-09T01:54:48.058Z,59.44
2018-10-09T01:55:47.978Z,59.46
2018-10-09T01:56:47.831Z,59.41
2018-10-09T01:57:48.173Z,59.38
2018-10-09T01:58:48.021Z,59.45
2018-10-09T01:59:47.966Z,59.41
2018-10-09T02:00:48.620Z,59.48
2018-10-09T02:01:47.835Z,59.44
2018-10-09T02:02:48.261Z,59.39
2018-10-09T02:03:48.005Z,59.42
2018-10-09T02:04:47.875Z,59.42
2018-10-09T02:05:47.965Z,59.41
2018-10-09T02:06:47.897Z,59.42
2018-10-09T02:07:48.265Z,59.41
2018-10-09T02:08:48.565Z,59.41
2018-10-09T02:09:47.985Z,59.46
2018-10-09T02:10:47.997Z,59.42
2018-10-09T02:11:48.101Z,59.48
2018-10-09T02:12:48.541Z,59.44
2018-10-09T02:13:47.825Z,59.43
2018-10-09T02:14:47.940Z,59.43
2018-10-09T02:15:47.818Z,59.43
2018-10-09T02:16:47.945Z,59.41
2018-10-09T02:17:47.857Z,59.47
2018-10-09T02:18:48.157Z,59.44
2018-10-09T02:19:48.125Z,59.42
2018-10-09T02:20:48.073Z,59.47
2018-10-09T02:21:47.960Z,59.5
2018-10-09T02:22:47.996Z,59.48
2018-10-09T02:23:48.263Z,59.4
2018-10-09T02:24:48.359Z,59.48
2018-10-09T02:25:47.984Z,59.44
2018-10-09T02:26:48.254Z,59.4
2018-10-09T02:27:47.785Z,59.41
2018-10-09T02:28:47.961Z,59.46
2018-10-09T02:29:48.378Z,59.48
2018-10-09T02:30:48.441Z,59.45
2018-10-09T02:31:47.855Z,59.44
2018-10-09T02:32:48.047Z,59.5
2018-10-09T02:33:48.119Z,59.48
2018-10-09T02:34:47.880Z,59.43
2018-10-09T02:35:48.187Z,59.44
2018-10-09T02:36:48.098Z,59.43
2018-10-09T02:37:48.370Z,59.48
2018-10-09T02:38:47.985Z,59.46
2018-10-09T02:39:48.116Z,59.47
2018-10-09T02:40:48.069Z,59.43
2018-10-09T02:41:47.883Z,59.42
2018-10-09T02:42:47.974Z,59.49
2018-10-09T02:43:47.920Z,59.45
2018-10-09T02:44:48.003Z,59.41
2018-10-09T02:45:47.970Z,59.43
2018-10-09T02:46:48.093Z,59.43
2018-10-09T02:47:47.991Z,59.42
2018-10-09T02:48:47.836Z,59.43
2018-10-09T02:49:47.940Z,59.42
2018-10-09T02:50:48.221Z,59.43
2018-10-09T02:51:47.957Z,59.41
2018-10-09T02:52:47.902Z,59.45
2018-10-09T02:53:47.952Z,59.43
2018-10-09T02:54:48.301Z,59.38
2018-10-09T02:55:47.929Z,59.44
2018-10-09T02:56:47.927Z,59.42
2018-10-09T02:57:47.815Z,59.43
2018-10-09T02:58:48.111Z,59.42
2018-10-09T02:59:48.059Z,59.46
2018-10-09T03:00:47.912Z,59.46
2018-10-09T03:01:48.048Z,59.43
2018-10-09T03:02:47.881Z,59.46
2018-10-09T03:03:48.127Z,59.43
2018-10-09T03:04:47.882Z,59.43
2018-10-09T03:05:47.852Z,59.42
2018-10-09T03:06:48.014Z,59.37
2018-10-09T03:07:47.748Z,59.44
2018-10-09T03:08:48.054Z,59.48
2018-10-09T03:09:48.078Z,59.4
2018-10-09T03:10:47.857Z,59.43
2018-10-09T03:11:47.812Z,59.44
2018-10-09T03:12:48.140Z,59.43
2018-10-09T03:13:47.927Z,59.42
2018-10-09T03:14:47.966Z,59.37
2018-10-09T03:15:47.888Z,59.47
2018-10-09T03:16:47.936Z,59.46
2018-10-09T03:17:48.402Z,59.4
2018-10-09T03:18:47.976Z,59.44
2018-10-09T03:19:48.044Z,59.39
2018-10-09T03:20:48.358Z,59.38
2018-10-09T03:21:47.914Z,59.35
2018-10-09T03:22:48.179Z,59.4
2018-10-09T03:23:48.340Z,59.39
2018-10-09T03:24:47.912Z,59.42
2018-10-09T03:25:48.160Z,59.4
2018-10-09T03:26:47.752Z,59.43
2018-10-09T03:27:48.062Z,59.43
2018-10-09T03:28:47.886Z,59.4
2018-10-09T03:29:47.970Z,59.42
2018-10-09T03:30:47.669Z,59.46
2018-10-09T03:31:47.884Z,59.42
2018-10-09T03:32:47.817Z,59.38
2018-10-09T03:33:48.095Z,59.43
2018-10-09T03:34:47.863Z,59.4
2018-10-09T03:35:48.129Z,59.46
2018-10-09T03:36:47.948Z,59.43
2018-10-09T03:37:48.137Z,59.44
2018-10-09T03:38:47.890Z,59.42
2018-10-09T03:39:48.384Z,59.4
2018-10-09T03:40:48.095Z,59.44
2018-10-09T03:41:48.472Z,59.35
2018-10-09T03:42:48.322Z,59.38
2018-10-09T03:43:48.243Z,59.35
2018-10-09T03:44:48.068Z,59.38
2018-10-09T03:45:48.056Z,59.36
2018-10-09T03:46:47.933Z,59.38
2018-10-09T03:47:47.966Z,59.37
2018-10-09T03:48:47.756Z,59.4
2018-10-09T03:49:48.162Z,59.38
2018-10-09T03:50:47.933Z,59.38
2018-10-09T03:51:47.978Z,59.33
2018-10-09T03:52:47.830Z,59.41
2018-10-09T03:53:48.350Z,59.38
2018-10-09T03:54:47.950Z,59.42
2018-10-09T03:55:47.957Z,59.37
2018-10-09T03:56:47.801Z,59.38
2018-10-09T03:57:48.716Z,59.39
2018-10-09T03:58:48.011Z,59.39
2018-10-09T03:59:48.139Z,59.38
2018-10-09T04:00:48.080Z,59.38
2018-10-09T04:01:48.490Z,59.44
2018-10-09T04:02:47.796Z,59.39
2018-10-09T04:03:47.883Z,59.37
2018-10-09T04:04:48.294Z,59.44
2018-10-09T04:05:48.395Z,59.42
2018-10-09T04:06:47.709Z,59.39
2018-10-09T04:07:47.909Z,59.39
2018-10-09T04:08:47.718Z,59.37
2018-10-09T04:09:48.151Z,59.33
2018-10-09T04:10:48.003Z,59.39
2018-10-09T04:11:48.017Z,59.38
2018-10-09T04:12:48.109Z,59.39
2018-10-09T04:13:48.112Z,59.39
2018-10-09T04:14:47.982Z,59.34
2018-10-09T04:15:47.750Z,59.4
2018-10-09T04:16:47.815Z,59.41
2018-10-09T04:17:47.950Z,59.41
2018-10-09T04:18:48.166Z,59.38
2018-10-09T04:19:47.666Z,59.34
2018-10-09T04:20:48.079Z,59.41
2018-10-09T04:21:48.019Z,59.39
2018-10-09T04:22:48.270Z,59.41
2018-10-09T04:23:47.760Z,59.39
2018-10-09T04:24:47.922Z,59.39
2018-10-09T04:25:47.779Z,59.39
2018-10-09T04:26:47.964Z,59.4
2018-10-09T04:27:48.620Z,59.32
2018-10-09T04:28:47.992Z,59.38
2018-10-09T04:29:47.664Z,59.38
2018-10-09T04:30:47.704Z,59.37
2018-10-09T04:31:48.443Z,59.38
2018-10-09T04:32:48.491Z,59.42
2018-10-09T04:33:47.855Z,59.41
2018-10-09T04:34:47.721Z,59.37
2018-10-09T04:35:47.864Z,59.4
2018-10-09T04:36:48.798Z,59.38
2018-10-09T04:37:47.786Z,59.38
2018-10-09T04:38:48.005Z,59.39
2018-10-09T04:39:48.417Z,59.4
2018-10-09T04:40:47.800Z,59.42
2018-10-09T04:41:48.099Z,59.4
2018-10-09T04:42:47.769Z,59.39
2018-10-09T04:43:47.896Z,59.38
2018-10-09T04:44:47.902Z,59.42
2018-10-09T04:45:48.084Z,59.38
2018-10-09T04:46:48.167Z,59.38
2018-10-09T04:47:47.855Z,59.33
2018-10-09T04:48:48.024Z,59.39
2018-10-09T04:49:47.811Z,59.36
2018-10-09T04:50:47.773Z,59.38
2018-10-09T04:51:48.121Z,59.36
2018-10-09T04:52:47.929Z,59.4
2018-10-09T04:53:48.019Z,59.38
2018-10-09T04:54:48.114Z,59.43
2018-10-09T04:55:48.088Z,59.39
2018-10-09T04:56:47.934Z,59.4
2018-10-09T04:57:48.095Z,59.41
2018-10-09T04:58:48.137Z,59.39
2018-10-09T04:59:48.116Z,59.38
2018-10-09T05:00:48.268Z,59.39
2018-10-09T05:01:48.080Z,59.43
2018-10-09T05:02:47.929Z,59.36
2018-10-09T05:03:48.100Z,59.43
2018-10-09T05:04:48.084Z,59.4
2018-10-09T05:05:47.834Z,59.45
2018-10-09T05:06:48.314Z,59.42
2018-10-09T05:07:47.790Z,59.36
2018-10-09T05:08:47.778Z,59.39
2018-10-09T05:09:48.222Z,59.42
2018-10-09T05:10:47.994Z,59.38
2018-10-09T05:11:47.900Z,59.4
2018-10-09T05:12:47.898Z,59.4
2018-10-09T05:13:47.949Z,59.32
2018-10-09T05:14:48.668Z,59.34
2018-10-09T05:15:47.966Z,59.33
2018-10-09T05:16:48.228Z,59.36
2018-10-09T05:17:48.119Z,59.33
2018-10-09T05:18:47.792Z,59.35
2018-10-09T05:19:48.202Z,59.31
2018-10-09T05:20:48.206Z,59.34
2018-10-09T05:21:48.054Z,59.34
2018-10-09T05:22:47.780Z,59.41
2018-10-09T05:23:47.711Z,59.35
2018-10-09T05:24:48.030Z,59.4
2018-10-09T05:25:47.745Z,59.39
2018-10-09T05:26:47.833Z,59.34
2018-10-09T05:27:47.969Z,59.35
2018-10-09T05:28:47.744Z,59.34
2018-10-09T05:29:47.922Z,59.33
2018-10-09T05:30:47.882Z,59.38
2018-10-09T05:31:47.836Z,59.31
2018-10-09T05:32:47.818Z,59.31
2018-10-09T05:33:48.309Z,59.33
2018-10-09T05:34:47.730Z,59.34
2018-10-09T05:35:47.926Z,59.29
2018-10-09T05:36:48.084Z,59.25
2018-10-09T05:37:48.205Z,59.26
2018-10-09T05:38:47.888Z,59.35
2018-10-09T05:39:48.120Z,59.29
2018-10-09T05:40:47.839Z,59.31
2018-10-09T05:41:47.956Z,59.32
2018-10-09T05:42:47.979Z,59.38
2018-10-09T05:43:47.857Z,59.31
2018-10-09T05:44:48.175Z,59.32
2018-10-09T05:45:47.786Z,59.31
2018-10-09T05:46:47.994Z,59.32
2018-10-09T05:47:47.983Z,59.26
2018-10-09T05:48:48.061Z,59.26
2018-10-09T05:49:47.966Z,59.31
2018-10-09T05:50:47.867Z,59.28
2018-10-09T05:51:47.860Z,59.29
2018-10-09T05:52:47.979Z,59.28
2018-10-09T05:53:47.774Z,59.26
2018-10-09T05:54:47.716Z,59.24
2018-10-09T05:55:47.686Z,59.26
2018-10-09T05:56:47.866Z,59.21
2018-10-09T05:57:48.133Z,59.27
2018-10-09T05:58:47.806Z,59.28
2018-10-09T05:59:47.868Z,59.26
2018-10-09T06:00:47.875Z,59.29
2018-10-09T06:01:48.284Z,59.23
2018-10-09T06:02:47.732Z,59.23
2018-10-09T06:03:47.974Z,59.25
2018-10-09T06:04:47.817Z,59.26
2018-10-09T06:05:48.059Z,59.29
2018-10-09T06:06:48.026Z,59.22
2018-10-09T06:07:48.156Z,59.24
2018-10-09T06:08:47.751Z,59.24
2018-10-09T06:09:47.772Z,59.26
2018-10-09T06:10:47.999Z,59.23
2018-10-09T06:11:48.462Z,59.22
2018-10-09T06:12:47.784Z,59.23
2018-10-09T06:13:48.276Z,59.26
2018-10-09T06:14:47.913Z,59.24
2018-10-09T06:15:48.039Z,59.27
2018-10-09T06:16:47.835Z,59.32
2018-10-09T06:17:47.813Z,59.2
2018-10-09T06:18:47.970Z,59.23
2018-10-09T06:19:47.706Z,59.2
2018-10-09T06:20:47.895Z,59.26
2018-10-09T06:21:48.021Z,59.25
2018-10-09T06:22:47.863Z,59.21
2018-10-09T06:23:47.718Z,59.2
2018-10-09T06:24:48.173Z,59.19
2018-10-09T06:25:48.091Z,59.19
2018-10-09T06:26:48.066Z,59.17
2018-10-09T06:27:48.113Z,59.21
2018-10-09T06:28:47.865Z,59.16
2018-10-09T06:29:47.825Z,59.16
2018-10-09T06:30:48.334Z,59.19
2018-10-09T06:31:47.831Z,59.17
2018-10-09T06:32:47.827Z,59.2
2018-10-09T06:33:47.925Z,59.2
2018-10-09T06:34:48.187Z,59.13
2018-10-09T06:35:47.873Z,59.17
2018-10-09T06:36:47.779Z,59.17
2018-10-09T06:37:48.027Z,59.17
2018-10-09T06:38:47.788Z,59.17
2018-10-09T06:39:48.183Z,59.17
2018-10-09T06:40:48.337Z,59.18
2018-10-09T06:41:48.036Z,59.23
2018-10-09T06:42:48.126Z,59.22
2018-10-09T06:43:47.782Z,59.17
2018-10-09T06:44:47.962Z,59.21
2018-10-09T06:45:47.893Z,59.14
2018-10-09T06:46:47.938Z,59.18
2018-10-09T06:47:48.051Z,59.21
2018-10-09T06:48:47.906Z,59.18
2018-10-09T06:49:47.770Z,59.19
2018-10-09T06:50:47.860Z,59.14
2018-10-09T06:51:47.789Z,59.16
2018-10-09T06:52:47.834Z,59.13
2018-10-09T06:53:48.318Z,59.14
2018-10-09T06:54:48.210Z,59.2
2018-10-09T06:55:47.803Z,59.16
2018-10-09T06:56:48.148Z,59.12
2018-10-09T06:57:48.250Z,59.22
2018-10-09T06:58:47.872Z,59.19
2018-10-09T06:59:48.111Z,59.16
2018-10-09T07:00:48.106Z,59.23
2018-10-09T07:01:47.860Z,59.19
2018-10-09T07:02:47.800Z,59.24
2018-10-09T07:03:47.870Z,59.26
2018-10-09T07:04:47.825Z,59.2
2018-10-09T07:05:47.901Z,59.19
2018-10-09T07:06:48.089Z,59.2
2018-10-09T07:07:47.713Z,59.2
2018-10-09T07:08:47.764Z,59.21
2018-10-09T07:09:47.931Z,59.25
2018-10-09T07:10:47.920Z,59.24
2018-10-09T07:11:47.873Z,59.21
2018-10-09T07:12:47.888Z,59.19
2018-10-09T07:13:48.209Z,59.18
2018-10-09T07:14:47.942Z,59.26
2018-10-09T07:15:47.690Z,59.2
2018-10-09T07:16:48.306Z,59.19
2018-10-09T07:17:47.682Z,59.26
2018-10-09T07:18:47.819Z,59.24
2018-10-09T07:19:47.805Z,59.27
2018-10-09T07:20:47.700Z,59.26
2018-10-09T07:21:47.928Z,59.25
2018-10-09T07:22:47.742Z,59.21
2018-10-09T07:23:47.704Z,59.25
2018-10-09T07:24:47.910Z,59.25
2018-10-09T07:25:48.103Z,59.27
2018-10-09T07:26:47.717Z,59.28
2018-10-09T07:27:48.059Z,59.24
2018-10-09T07:28:47.938Z,59.24
2018-10-09T07:29:47.754Z,59.28
2018-10-09T07:30:47.851Z,59.25
2018-10-09T07:31:47.909Z,59.23
2018-10-09T07:32:47.900Z,59.3
2018-10-09T07:33:47.965Z,59.39
2018-10-09T07:34:48.304Z,59.34
2018-10-09T07:35:47.738Z,59.33
2018-10-09T07:36:47.764Z,59.3
2018-10-09T07:37:47.669Z,59.31
2018-10-09T07:38:47.884Z,59.29
2018-10-09T07:39:47.867Z,59.26
2018-10-09T07:40:48.000Z,59.31
2018-10-09T07:41:47.898Z,59.29
2018-10-09T07:42:47.994Z,59.28
2018-10-09T07:43:47.922Z,59.25
2018-10-09T07:44:47.900Z,59.22
2018-10-09T07:45:47.659Z,59.23
2018-10-09T07:46:47.769Z,59.25
2018-10-09T07:47:48.027Z,59.22
2018-10-09T07:48:47.974Z,59.3
2018-10-09T07:49:47.957Z,59.23
2018-10-09T07:50:47.683Z,59.25
2018-10-09T07:51:47.936Z,59.23
2018-10-09T07:52:48.022Z,59.24
2018-10-09T07:53:47.922Z,59.31
2018-10-09T07:54:47.965Z,59.28
2018-10-09T07:55:47.603Z,59.28
2018-10-09T07:56:47.658Z,59.21
2018-10-09T07:57:47.915Z,59.21
2018-10-09T07:58:48.448Z,59.25
2018-10-09T07:59:47.834Z,59.25
2018-10-09T08:00:47.904Z,59.52
2018-10-09T08:01:47.939Z,59.45
2018-10-09T08:02:47.594Z,59.45
2018-10-09T08:03:47.868Z,59.39
2018-10-09T08:04:48.036Z,59.44
2018-10-09T08:05:47.744Z,59.35
2018-10-09T08:06:47.927Z,59.44
2018-10-09T08:07:47.762Z,59.65
2018-10-09T08:08:47.887Z,59.51
2018-10-09T08:09:48.276Z,59.5
2018-10-09T08:10:48.314Z,59.5
2018-10-09T08:11:47.873Z,59.54
2018-10-09T08:12:47.999Z,59.47
2018-10-09T08:13:47.831Z,59.44
2018-10-09T08:14:47.918Z,59.44
2018-10-09T08:15:47.921Z,59.54
2018-10-09T08:16:47.795Z,59.48
2018-10-09T08:17:47.834Z,59.46
2018-10-09T08:18:47.733Z,59.45
2018-10-09T08:19:47.764Z,59.48
2018-10-09T08:20:47.803Z,59.44
2018-10-09T08:21:47.775Z,59.44
2018-10-09T08:22:47.945Z,59.45
2018-10-09T08:23:47.910Z,59.44
2018-10-09T08:24:47.981Z,59.43
2018-10-09T08:25:47.925Z,59.44
2018-10-09T08:26:48.160Z,59.41
2018-10-09T08:27:48.129Z,59.33
2018-10-09T08:28:47.862Z,59.54
2018-10-09T08:29:47.985Z,59.43
2018-10-09T08:30:47.920Z,59.55
2018-10-09T08:31:47.763Z,59.51
2018-10-09T08:32:47.985Z,59.52
2018-10-09T08:33:47.990Z,59.47
2018-10-09T08:34:47.765Z,59.35
2018-10-09T08:35:47.892Z,59.41
2018-10-09T08:36:47.689Z,59.38
2018-10-09T08:37:47.892Z,59.45
2018-10-09T08:38:47.688Z,59.45
2018-10-09T08:39:47.900Z,59.44
2018-10-09T08:40:47.911Z,59.36
2018-10-09T08:41:47.746Z,59.6
2018-10-09T08:42:47.668Z,59.55
2018-10-09T08:43:47.816Z,59.54
2018-10-09T08:44:47.735Z,59.53
2018-10-09T08:45:48.237Z,59.67
2018-10-09T08:46:47.707Z,59.58
2018-10-09T08:47:47.713Z,59.55
2018-10-09T08:48:47.948Z,59.59
2018-10-09T08:49:47.759Z,59.58
2018-10-09T08:50:47.726Z,59.56
2018-10-09T08:51:48.001Z,59.55
2018-10-09T08:52:47.777Z,59.6
2018-10-09T08:53:47.877Z,59.61
2018-10-09T08:54:47.938Z,59.62
2018-10-09T08:55:47.837Z,59.58
2018-10-09T08:56:47.793Z,59.63
2018-10-09T08:57:48.104Z,59.63
2018-10-09T08:58:48.125Z,59.59
2018-10-09T08:59:47.979Z,59.58
2018-10-09T09:00:47.834Z,59.58
2018-10-09T09:01:48.094Z,59.64
2018-10-09T09:02:47.863Z,59.58
2018-10-09T09:03:48.061Z,59.61
2018-10-09T09:04:47.776Z,59.59
2018-10-09T09:05:48.237Z,59.63
2018-10-09T09:06:48.063Z,59.57
2018-10-09T09:07:47.912Z,59.65
2018-10-09T09:08:47.785Z,59.6
2018-10-09T09:09:48.272Z,59.6
2018-10-09T09:10:47.861Z,59.6
2018-10-09T09:11:48.074Z,59.59
2018-10-09T09:12:48.217Z,59.62
2018-10-09T09:13:47.899Z,59.59
2018-10-09T09:14:47.724Z,59.6
2018-10-09T09:15:47.929Z,59.59
2018-10-09T09:16:47.986Z,59.55
2018-10-09T09:17:47.876Z,59.58
2018-10-09T09:18:47.799Z,59.6
2018-10-09T09:19:47.918Z,59.56
2018-10-09T09:20:47.918Z,59.59
2018-10-09T09:21:48.291Z,59.55
2018-10-09T09:22:48.038Z,59.56
2018-10-09T09:23:47.871Z,59.56
2018-10-09T09:24:47.804Z,59.53
2018-10-09T09:25:47.960Z,59.61
2018-10-09T09:26:48.306Z,59.5
2018-10-09T09:27:48.017Z,59.56
2018-10-09T09:28:48.040Z,59.55
2018-10-09T09:29:48.049Z,59.54
2018-10-09T09:30:47.560Z,59.53
2018-10-09T09:31:47.989Z,59.57
2018-10-09T09:32:47.721Z,59.54
2018-10-09T09:33:48.068Z,59.54
2018-10-09T09:34:47.821Z,59.52
2018-10-09T09:35:47.812Z,59.54
2018-10-09T09:36:47.894Z,59.54
2018-10-09T09:37:48.198Z,59.53
2018-10-09T09:38:47.767Z,59.56
2018-10-09T09:39:47.699Z,59.56
2018-10-09T09:40:47.899Z,59.5
2018-10-09T09:41:47.773Z,59.57
2018-10-09T09:42:47.936Z,59.61
2018-10-09T09:43:47.581Z,59.56
2018-10-09T09:44:47.910Z,59.53
2018-10-09T09:45:47.688Z,59.51
2018-10-09T09:46:47.711Z,59.56
2018-10-09T09:47:47.663Z,59.58
2018-10-09T09:48:47.951Z,59.46
2018-10-09T09:49:47.736Z,59.55
2018-10-09T09:50:48.079Z,59.57
2018-10-09T09:51:47.980Z,59.57
2018-10-09T09:52:47.852Z,59.53
2018-10-09T09:53:47.885Z,59.51
2018-10-09T09:54:47.852Z,59.53
2018-10-09T09:55:47.564Z,59.5
2018-10-09T09:56:47.704Z,59.54
2018-10-09T09:57:48.122Z,59.54
2018-10-09T09:58:48.405Z,59.46
2018-10-09T09:59:47.826Z,59.48
2018-10-09T10:00:47.801Z,59.47
2018-10-09T10:01:48.051Z,59.45
2018-10-09T10:02:47.653Z,59.58
2018-10-09T10:03:48.162Z,59.52
2018-10-09T10:04:47.787Z,59.55
2018-10-09T10:05:47.758Z,59.53
2018-10-09T10:06:47.721Z,59.56
2018-10-09T10:07:47.887Z,59.52
2018-10-09T10:08:48.009Z,59.57
2018-10-09T10:09:47.784Z,59.54
2018-10-09T10:10:47.883Z,59.55
2018-10-09T10:11:47.754Z,59.53
2018-10-09T10:12:47.814Z,59.56
2018-10-09T10:13:48.115Z,59.53
2018-10-09T10:14:47.664Z,59.52
2018-10-09T10:15:47.807Z,59.5
2018-10-09T10:16:48.270Z,59.5
2018-10-09T10:17:47.740Z,59.52
2018-10-09T10:18:48.314Z,59.5
2018-10-09T10:19:47.852Z,59.44
2018-10-09T10:20:47.688Z,59.52
2018-10-09T10:21:47.893Z,59.46
2018-10-09T10:22:48.066Z,59.48
2018-10-09T10:23:47.634Z,59.51
2018-10-09T10:24:47.855Z,59.5
2018-10-09T10:25:47.909Z,59.51
2018-10-09T10:26:48.039Z,59.47
2018-10-09T10:27:47.725Z,59.49
2018-10-09T10:28:47.781Z,59.48
2018-10-09T10:29:47.861Z,59.48
2018-10-09T10:30:48.157Z,59.47
2018-10-09T10:31:47.795Z,59.49
2018-10-09T10:32:48.048Z,59.54
2018-10-09T10:33:47.837Z,59.45
2018-10-09T10:34:47.756Z,59.48
2018-10-09T10:35:47.961Z,59.42
2018-10-09T10:36:48.140Z,59.43
2018-10-09T10:37:47.952Z,59.42
2018-10-09T10:38:47.870Z,59.45
2018-10-09T10:39:48.123Z,59.45
2018-10-09T10:40:47.899Z,59.51
2018-10-09T10:41:47.630Z,59.41
2018-10-09T10:42:47.697Z,59.5
2018-10-09T10:43:47.881Z,59.44
2018-10-09T10:44:47.963Z,59.47
2018-10-09T10:45:47.773Z,59.44
2018-10-09T10:46:47.824Z,59.39
2018-10-09T10:47:47.806Z,59.47
2018-10-09T10:48:48.010Z,59.45
2018-10-09T10:49:47.537Z,59.45
2018-10-09T10:50:48.006Z,59.4
2018-10-09T10:51:47.873Z,59.49
2018-10-09T10:52:47.777Z,59.46
2018-10-09T10:53:47.565Z,59.47
2018-10-09T10:54:47.922Z,59.45
2018-10-09T10:55:47.630Z,59.39
2018-10-09T10:56:47.903Z,59.42
2018-10-09T10:57:47.752Z,59.43
2018-10-09T10:58:47.997Z,59.47
2018-10-09T10:59:48.114Z,59.42
2018-10-09T11:00:48.239Z,59.42
2018-10-09T11:01:48.229Z,59.38
2018-10-09T11:02:47.974Z,59.43
2018-10-09T11:03:47.676Z,59.49
2018-10-09T11:04:47.789Z,59.37
2018-10-09T11:05:48.063Z,59.45
2018-10-09T11:06:47.857Z,59.37
2018-10-09T11:07:48.187Z,59.38
2018-10-09T11:08:47.818Z,59.44
2018-10-09T11:09:47.955Z,59.43
2018-10-09T11:10:48.041Z,59.47
2018-10-09T11:11:48.013Z,59.4
2018-10-09T11:12:47.947Z,59.37
2018-10-09T11:13:47.894Z,59.4
2018-10-09T11:14:48.072Z,59.47
2018-10-09T11:15:47.809Z,59.44
2018-10-09T11:16:47.758Z,59.43
2018-10-09T11:17:48.164Z,59.49
2018-10-09T11:18:47.927Z,59.51
2018-10-09T11:19:47.705Z,59.4
2018-10-09T11:20:47.932Z,59.45
2018-10-09T11:21:47.760Z,59.46
2018-10-09T11:22:47.873Z,59.45
2018-10-09T11:23:47.841Z,59.42
2018-10-09T11:24:47.733Z,59.47
2018-10-09T11:25:47.556Z,59.43
2018-10-09T11:26:47.819Z,59.39
2018-10-09T11:27:47.788Z,59.44
2018-10-09T11:28:47.769Z,59.45
2018-10-09T11:29:47.818Z,59.43
2018-10-09T11:30:47.706Z,59.59
2018-10-09T11:31:47.792Z,59.51
2018-10-09T11:32:47.535Z,59.46
2018-10-09T11:33:48.199Z,59.48
2018-10-09T11:34:48.032Z,59.52
2018-10-09T11:35:47.800Z,59.57
2018-10-09T11:36:47.753Z,59.62
2018-10-09T11:37:47.754Z,59.66
2018-10-09T11:38:47.793Z,59.67
2018-10-09T11:39:47.828Z,59.89
2018-10-09T11:40:47.724Z,59.99
2018-10-09T11:41:47.684Z,59.91
2018-10-09T11:42:48.018Z,59.91
2018-10-09T11:43:47.871Z,59.87
2018-10-09T11:44:47.542Z,59.88
2018-10-09T11:45:47.712Z,59.88
2018-10-09T11:46:47.667Z,59.86
2018-10-09T11:47:47.905Z,59.81
2018-10-09T11:48:48.188Z,59.88
2018-10-09T11:49:48.310Z,59.94
2018-10-09T11:50:47.810Z,59.87
2018-10-09T11:51:47.870Z,59.96
2018-10-09T11:52:47.858Z,59.95
2018-10-09T11:53:47.961Z,59.84
2018-10-09T11:54:47.857Z,59.87
2018-10-09T11:55:48.368Z,59.89
2018-10-09T11:56:47.695Z,59.83
2018-10-09T11:57:47.981Z,59.75
2018-10-09T11:58:47.685Z,59.75
2018-10-09T11:59:47.779Z,59.81
2018-10-09T12:00:47.723Z,59.77
2018-10-09T12:01:47.823Z,59.78
2018-10-09T12:02:47.887Z,59.79
2018-10-09T12:03:47.801Z,59.8
2018-10-09T12:04:47.842Z,59.79
2018-10-09T12:05:48.143Z,59.7
2018-10-09T12:06:47.768Z,59.73
2018-10-09T12:07:47.602Z,59.73
2018-10-09T12:08:47.690Z,59.66
2018-10-09T12:09:47.854Z,59.7
2018-10-09T12:10:48.033Z,59.68
2018-10-09T12:11:47.647Z,59.63
2018-10-09T12:12:47.772Z,59.61
2018-10-09T12:13:47.649Z,59.61
2018-10-09T12:14:47.761Z,59.69
2018-10-09T12:15:47.947Z,59.69
2018-10-09T12:16:47.913Z,59.67
2018-10-09T12:17:47.807Z,59.66
2018-10-09T12:18:47.768Z,59.69
2018-10-09T12:19:47.903Z,59.61
2018-10-09T12:20:47.901Z,59.7
2018-10-09T12:21:47.512Z,59.61
2018-10-09T12:22:47.939Z,59.53
2018-10-09T12:23:47.602Z,59.68
2018-10-09T12:24:47.912Z,59.59
2018-10-09T12:25:47.803Z,59.61
2018-10-09T12:26:47.839Z,59.56
2018-10-09T12:27:48.184Z,59.63
2018-10-09T12:28:47.632Z,59.61
2018-10-09T12:29:47.861Z,59.59
2018-10-09T12:30:48.502Z,59.59
2018-10-09T12:31:47.799Z,59.63
2018-10-09T12:32:48.192Z,59.58
2018-10-09T12:33:48.789Z,59.66
2018-10-09T12:34:47.838Z,59.69
2018-10-09T12:35:47.748Z,59.66
2018-10-09T12:36:47.919Z,59.63
2018-10-09T12:37:48.058Z,59.76
2018-10-09T12:38:47.639Z,59.67
2018-10-09T12:39:47.864Z,59.74
2018-10-09T12:40:47.606Z,59.67
2018-10-09T12:41:47.702Z,59.61
2018-10-09T12:42:47.731Z,59.69
2018-10-09T12:43:48.015Z,59.79
2018-10-09T12:44:47.677Z,59.73
2018-10-09T12:45:47.653Z,59.78
2018-10-09T12:46:47.647Z,59.75
2018-10-09T12:47:47.735Z,59.73
2018-10-09T12:48:47.840Z,59.66
2018-10-09T12:49:47.779Z,59.81
2018-10-09T12:50:47.687Z,59.72
2018-10-09T12:51:47.828Z,59.8
2018-10-09T12:52:47.802Z,59.74
2018-10-09T12:53:47.864Z,59.77
2018-10-09T12:54:48.235Z,59.76